Armstrong Creek, Wisconsin
Current Conditions -  °F | °C
As of 3:54 AM on Tuesday 27 Jan 2015 (Local Time) from KIMT Reporting Station
Overcast Overcast  
Wind Chill: 19°   Ceiling: 700
Heat Index: 19°   Visibility: 10mi
Dew Point: 16°   Wind: 0mph
Humidity: 88%   Direction: NA
Pressure: 30.05"   Gusts: NA
Location:  45.66°N, 88.45°W
Report Text: KIMT 270954Z AUTO 00000KT 10SM OVC007 M07/M09 A3005 RMK AO2 SLP196 T10721089
Loading
Personal Weather Stations






























Interactive Weather Map New forecast layout! Learn more

10-Day Weather Forecast

Advertisements
Track Severe Weather on mobile